createdAt,value
2022-11-28T00:01:34.119Z,6.50
2022-11-28T00:04:00.963Z,6.50
2022-11-28T00:06:28.414Z,6.50
2022-11-28T00:08:55.495Z,6.50
2022-11-28T00:11:22.285Z,6.50
2022-11-28T00:13:49.009Z,6.50
2022-11-28T00:16:17.329Z,6.40
2022-11-28T00:18:44.221Z,6.50
2022-11-28T00:21:11.852Z,6.50
2022-11-28T00:23:38.726Z,6.50
2022-11-28T00:26:07.061Z,6.50
2022-11-28T00:28:33.759Z,6.40
2022-11-28T00:31:00.558Z,6.40
2022-11-28T00:33:27.718Z,6.40
2022-11-28T00:35:58.472Z,6.50
2022-11-28T00:38:25.236Z,6.50
2022-11-28T00:40:59.036Z,6.50
2022-11-28T00:43:27.683Z,6.50
2022-11-28T00:45:54.726Z,6.50
2022-11-28T00:48:28.028Z,6.60
2022-11-28T00:50:55.424Z,6.50
2022-11-28T00:53:22.259Z,6.60
2022-11-28T00:55:48.997Z,6.50
2022-11-28T00:58:15.722Z,6.50
2022-11-28T01:00:42.516Z,6.50
2022-11-28T01:03:09.493Z,6.50
2022-11-28T01:05:40.115Z,6.50
2022-11-28T01:08:06.884Z,6.50
2022-11-28T01:10:33.654Z,6.40
2022-11-28T01:13:00.447Z,6.40
2022-11-28T01:15:27.200Z,6.50
2022-11-28T01:17:54.151Z,6.50
2022-11-28T01:20:20.860Z,6.40
2022-11-28T01:22:47.768Z,6.40
2022-11-28T01:25:14.613Z,6.40
2022-11-28T01:27:41.415Z,6.30
2022-11-28T01:30:08.348Z,6.40
2022-11-28T01:32:35.274Z,6.30
2022-11-28T01:35:03.275Z,6.30
2022-11-28T01:37:30.250Z,6.30
2022-11-28T01:39:57.176Z,6.30
2022-11-28T01:42:23.952Z,6.30
2022-11-28T01:44:50.616Z,6.30
2022-11-28T01:47:29.491Z,6.30
2022-11-28T01:49:56.340Z,6.30
2022-11-28T01:52:23.642Z,6.20
2022-11-28T01:54:52.460Z,6.20
2022-11-28T01:57:21.388Z,6.20
2022-11-28T01:59:54.614Z,6.20
2022-11-28T02:02:29.221Z,6.20
2022-11-28T02:04:56.425Z,6.20
2022-11-28T02:07:23.683Z,6.20
2022-11-28T02:09:50.434Z,6.20
2022-11-28T02:12:29.334Z,6.10
2022-11-28T02:15:02.261Z,6.10
2022-11-28T02:17:47.436Z,6.10
2022-11-28T02:20:33.081Z,6.10
2022-11-28T02:23:05.085Z,6.10
2022-11-28T02:25:38.074Z,6.10
2022-11-28T02:28:04.916Z,6.00
2022-11-28T02:30:51.172Z,6.10
2022-11-28T02:33:37.195Z,6.10
2022-11-28T02:36:26.233Z,6.00
2022-11-28T02:39:05.183Z,6.10
2022-11-28T02:41:43.214Z,6.00
2022-11-28T02:44:09.972Z,6.00
2022-11-28T02:46:36.819Z,6.00
2022-11-28T02:49:05.497Z,6.10
2022-11-28T02:51:32.229Z,6.00
2022-11-28T02:53:59.867Z,6.00
2022-11-28T02:56:26.731Z,6.00
2022-11-28T02:58:53.670Z,6.10
2022-11-28T03:01:23.196Z,6.10
2022-11-28T03:03:57.345Z,6.20
2022-11-28T03:06:33.291Z,6.20
2022-11-28T03:09:03.098Z,6.20
2022-11-28T03:11:43.258Z,6.30
2022-11-28T03:14:24.048Z,6.20
2022-11-28T03:17:03.810Z,6.20
2022-11-28T03:19:53.567Z,6.10
2022-11-28T03:22:20.363Z,6.10
2022-11-28T03:24:50.761Z,6.20
2022-11-28T03:27:21.141Z,6.20
2022-11-28T03:29:50.811Z,6.20
2022-11-28T03:32:25.942Z,6.20
2022-11-28T03:34:56.542Z,6.20
2022-11-28T03:37:32.632Z,6.20
2022-11-28T03:40:01.212Z,6.20
2022-11-28T03:42:29.885Z,6.20
2022-11-28T03:45:02.709Z,6.10
2022-11-28T03:47:32.603Z,6.10
2022-11-28T03:50:02.661Z,6.10
2022-11-28T03:52:32.147Z,6.10
2022-11-28T03:55:01.151Z,6.10
2022-11-28T03:57:37.705Z,6.10
2022-11-28T04:00:07.273Z,6.10
2022-11-28T04:02:38.700Z,6.20
2022-11-28T04:05:08.684Z,6.20
2022-11-28T04:07:57.987Z,6.20
2022-11-28T04:10:24.710Z,6.20
2022-11-28T04:13:10.298Z,6.20
2022-11-28T04:16:00.414Z,6.20
2022-11-28T04:18:30.335Z,6.20
2022-11-28T04:21:08.235Z,6.20
2022-11-28T04:23:40.185Z,6.20
2022-11-28T04:26:10.902Z,6.20
2022-11-28T04:28:38.089Z,6.20
2022-11-28T04:31:05.916Z,6.20
2022-11-28T04:33:35.411Z,6.20
2022-11-28T04:36:03.052Z,6.20
2022-11-28T04:38:31.134Z,6.20
2022-11-28T04:41:12.501Z,6.20
2022-11-28T04:43:41.414Z,6.20
2022-11-28T04:46:13.358Z,6.20
2022-11-28T04:48:40.743Z,6.20
2022-11-28T04:51:22.885Z,6.20
2022-11-28T04:54:07.811Z,6.20
2022-11-28T04:56:40.111Z,6.30
2022-11-28T04:59:07.491Z,6.30
2022-11-28T05:01:37.132Z,6.30
2022-11-28T05:04:03.974Z,6.30
2022-11-28T05:06:34.486Z,6.30
2022-11-28T05:09:01.446Z,6.30
2022-11-28T05:11:28.849Z,6.20
2022-11-28T05:13:56.184Z,6.20
2022-11-28T05:16:24.800Z,6.30
2022-11-28T05:18:52.100Z,6.30
2022-11-28T05:21:18.814Z,6.30
2022-11-28T05:23:45.720Z,6.30
2022-11-28T05:26:14.672Z,6.30
2022-11-28T05:28:45.647Z,6.20
2022-11-28T05:31:13.172Z,6.20
2022-11-28T05:33:40.101Z,6.10
2022-11-28T05:36:12.582Z,6.10
2022-11-28T05:38:40.043Z,6.10
2022-11-28T05:41:07.157Z,6.20
2022-11-28T05:43:34.093Z,6.20
2022-11-28T05:46:00.976Z,6.20
2022-11-28T05:48:27.864Z,6.20
2022-11-28T05:51:03.123Z,6.20
2022-11-28T05:53:46.006Z,6.20
2022-11-28T06:01:50.347Z,6.20
2022-11-28T06:08:03.460Z,6.20
2022-11-28T06:10:30.305Z,6.20
2022-11-28T06:12:57.099Z,6.20
2022-11-28T06:15:23.825Z,6.30
2022-11-28T06:17:50.617Z,6.30
2022-11-28T06:20:17.360Z,6.30
2022-11-28T06:22:45.897Z,6.30
2022-11-28T06:25:12.758Z,6.30
2022-11-28T06:27:39.556Z,6.30
2022-11-28T06:30:06.861Z,6.30
2022-11-28T06:32:33.706Z,6.30
2022-11-28T06:35:00.464Z,6.30
2022-11-28T06:37:27.959Z,6.30
2022-11-28T06:39:55.058Z,6.20
2022-11-28T06:42:21.808Z,6.20
2022-11-28T06:44:48.578Z,6.30
2022-11-28T06:47:15.303Z,6.20
2022-11-28T06:49:42.910Z,6.20
2022-11-28T06:52:09.791Z,6.30
2022-11-28T06:54:36.530Z,6.20
2022-11-28T06:57:03.403Z,6.20
2022-11-28T06:59:30.201Z,6.20
2022-11-28T07:02:06.934Z,6.20
2022-11-28T07:04:34.602Z,6.30
2022-11-28T07:07:01.683Z,6.30
2022-11-28T07:09:28.494Z,6.30
2022-11-28T07:11:55.531Z,6.20
2022-11-28T07:14:22.441Z,6.20
2022-11-28T07:16:49.760Z,6.20
2022-11-28T07:19:16.536Z,6.20
2022-11-28T07:21:43.309Z,6.20
2022-11-28T07:24:10.061Z,6.20
2022-11-28T07:26:38.179Z,6.20
2022-11-28T07:29:07.027Z,6.20
2022-11-28T07:31:33.951Z,6.20
2022-11-28T07:34:03.153Z,6.20
2022-11-28T07:36:30.553Z,6.20
2022-11-28T07:38:58.760Z,6.30
2022-11-28T07:41:27.232Z,6.20
2022-11-28T07:43:55.675Z,6.20
2022-11-28T07:46:23.143Z,6.20
2022-11-28T07:48:50.015Z,6.20
2022-11-28T07:51:19.191Z,6.10
2022-11-28T07:53:46.222Z,6.10
2022-11-28T07:56:15.238Z,6.20
2022-11-28T07:59:07.933Z,6.10
2022-11-28T08:01:35.971Z,6.10
2022-11-28T08:04:04.131Z,6.10
2022-11-28T08:06:31.714Z,6.20
2022-11-28T08:09:00.122Z,6.20
2022-11-28T08:11:29.986Z,6.20
2022-11-28T08:14:00.204Z,6.10
2022-11-28T08:16:28.036Z,6.20
2022-11-28T08:18:55.304Z,6.20
2022-11-28T08:21:24.053Z,6.20
2022-11-28T08:23:51.966Z,6.20
2022-11-28T08:26:19.931Z,6.20
2022-11-28T08:28:47.094Z,6.10
2022-11-28T08:31:13.860Z,6.20
2022-11-28T08:33:41.261Z,6.20
2022-11-28T08:36:08.686Z,6.10
2022-11-28T08:38:35.870Z,6.10
2022-11-28T08:41:03.787Z,6.00
2022-11-28T08:43:30.625Z,6.10
2022-11-28T08:45:57.641Z,6.00
2022-11-28T08:48:24.599Z,6.10
2022-11-28T08:50:51.396Z,6.10
2022-11-28T08:53:18.561Z,6.10
2022-11-28T08:55:45.693Z,6.10
2022-11-28T08:58:12.585Z,6.20
2022-11-28T09:00:39.721Z,6.20
2022-11-28T09:03:06.506Z,6.30
2022-11-28T09:05:34.496Z,6.20
2022-11-28T09:08:01.300Z,6.20
2022-11-28T09:10:28.150Z,6.20
2022-11-28T09:12:54.926Z,6.20
2022-11-28T09:15:21.684Z,6.20
2022-11-28T09:17:48.390Z,6.10
2022-11-28T09:20:16.644Z,6.10
2022-11-28T09:22:43.492Z,6.10
2022-11-28T09:25:10.275Z,6.10
2022-11-28T09:27:37.008Z,6.10
2022-11-28T09:30:03.937Z,6.10
2022-11-28T09:32:30.748Z,6.20
2022-11-28T09:34:57.550Z,6.20
2022-11-28T09:37:24.338Z,6.20
2022-11-28T09:40:11.933Z,6.20
2022-11-28T09:42:39.495Z,6.20
2022-11-28T09:45:18.790Z,6.20
2022-11-28T09:47:56.305Z,6.20
2022-11-28T09:50:27.970Z,6.20
2022-11-28T09:53:10.018Z,6.30
2022-11-28T09:55:39.944Z,6.30
2022-11-28T09:58:12.178Z,6.30
2022-11-28T10:00:41.470Z,6.30
2022-11-28T10:03:17.657Z,6.30
2022-11-28T10:06:09.147Z,6.30
2022-11-28T10:08:35.985Z,6.30
2022-11-28T10:11:05.203Z,6.30
2022-11-28T10:13:47.084Z,6.30
2022-11-28T10:16:29.706Z,6.30
2022-11-28T10:18:59.688Z,6.30
2022-11-28T10:21:38.677Z,6.30
2022-11-28T10:24:31.736Z,6.40
2022-11-28T10:27:02.698Z,6.30
2022-11-28T10:29:43.613Z,6.30
2022-11-28T10:32:19.826Z,6.30
2022-11-28T10:34:53.566Z,6.30
2022-11-28T10:37:23.907Z,6.30
2022-11-28T10:39:51.252Z,6.30
2022-11-28T10:42:21.238Z,6.30
2022-11-28T10:45:12.927Z,6.30
2022-11-28T10:47:39.673Z,6.30
2022-11-28T10:50:17.720Z,6.30
2022-11-28T10:52:56.106Z,6.30
2022-11-28T10:55:49.124Z,6.30
2022-11-28T10:58:21.415Z,6.20
2022-11-28T11:00:51.396Z,6.10
2022-11-28T11:03:19.259Z,6.10
2022-11-28T11:05:46.073Z,6.10
2022-11-28T11:08:23.449Z,6.10
2022-11-28T11:10:50.651Z,6.10
2022-11-28T11:13:24.878Z,6.10
2022-11-28T11:15:56.248Z,6.10
2022-11-28T11:18:43.255Z,6.10
2022-11-28T11:21:20.595Z,6.10
2022-11-28T11:23:48.143Z,6.10
2022-11-28T11:26:33.718Z,6.10
2022-11-28T11:29:01.428Z,6.10
2022-11-28T11:31:30.821Z,6.10
2022-11-28T11:34:02.509Z,6.10
2022-11-28T11:36:31.070Z,6.00
2022-11-28T11:39:05.120Z,5.90
2022-11-28T11:41:32.048Z,5.90
2022-11-28T11:44:18.842Z,5.90
2022-11-28T11:46:55.298Z,6.00
2022-11-28T11:49:31.282Z,6.00
2022-11-28T11:52:02.181Z,5.90
2022-11-28T11:54:29.088Z,6.00
2022-11-28T11:57:24.900Z,5.90
2022-11-28T11:59:45.865Z,6.00
2022-11-28T12:02:21.533Z,6.00
2022-11-28T12:04:55.225Z,6.00
2022-11-28T12:07:41.294Z,6.00
2022-11-28T12:10:12.031Z,6.10
2022-11-28T12:12:38.988Z,6.10
2022-11-28T12:15:12.478Z,6.10
2022-11-28T12:17:50.700Z,6.10
2022-11-28T12:20:22.293Z,6.10
2022-11-28T12:22:55.236Z,6.20
2022-11-28T12:25:22.031Z,6.20
2022-11-28T12:27:56.736Z,6.10
2022-11-28T12:30:32.075Z,6.20
2022-11-28T12:33:08.449Z,6.20
2022-11-28T12:35:38.299Z,6.10
2022-11-28T12:38:23.522Z,6.10
2022-11-28T12:41:08.957Z,6.10
2022-11-28T12:43:47.996Z,6.10
2022-11-28T12:46:33.856Z,6.10
2022-11-28T12:49:03.756Z,6.10
2022-11-28T12:51:49.367Z,6.10
2022-11-28T12:54:30.758Z,6.20
2022-11-28T12:57:05.519Z,6.20
2022-11-28T12:59:32.247Z,6.20
2022-11-28T13:02:15.225Z,6.10
2022-11-28T13:04:42.638Z,6.20
2022-11-28T13:07:12.643Z,6.10
2022-11-28T13:10:03.015Z,6.10
2022-11-28T13:12:41.251Z,6.10
2022-11-28T13:15:37.599Z,6.20
2022-11-28T13:18:24.797Z,6.20
2022-11-28T13:21:02.839Z,6.20
2022-11-28T13:23:29.583Z,6.20
2022-11-28T13:26:03.252Z,6.20
2022-11-28T13:28:48.373Z,6.20
2022-11-28T13:31:35.400Z,6.20
2022-11-28T13:34:02.465Z,6.10
2022-11-28T13:39:47.057Z,6.20
2022-11-28T13:42:59.954Z,6.10
2022-11-28T13:45:31.788Z,6.20
2022-11-28T13:48:00.372Z,6.10
2022-11-28T13:50:30.222Z,6.10
2022-11-28T13:53:00.128Z,6.00
2022-11-28T13:55:36.047Z,6.00
2022-11-28T13:58:22.415Z,5.90
2022-11-28T14:01:08.958Z,5.90
2022-11-28T14:03:47.074Z,5.90
2022-11-28T14:06:17.116Z,5.90
2022-11-28T14:08:44.880Z,6.00
2022-11-28T14:11:27.272Z,5.90
2022-11-28T14:13:55.279Z,5.90
2022-11-28T14:16:36.504Z,5.90
2022-11-28T14:19:14.510Z,5.90
2022-11-28T14:21:59.904Z,5.80
2022-11-28T14:24:46.115Z,5.80
2022-11-28T14:27:17.568Z,5.90
2022-11-28T14:29:47.713Z,5.90
2022-11-28T14:32:43.815Z,5.90
2022-11-28T14:35:38.118Z,5.90
2022-11-28T14:38:24.948Z,5.90
2022-11-28T14:40:51.985Z,5.90
2022-11-28T14:43:28.216Z,6.00
2022-11-28T14:46:14.023Z,5.90
2022-11-28T14:48:42.553Z,5.80
2022-11-28T14:51:09.455Z,5.70
2022-11-28T14:53:44.464Z,5.70
2022-11-28T14:56:22.388Z,5.70
2022-11-28T14:58:50.248Z,5.70
2022-11-28T15:01:33.789Z,5.70
2022-11-28T15:04:08.595Z,5.70
2022-11-28T15:06:36.872Z,5.70
2022-11-28T15:09:07.933Z,5.80
2022-11-28T15:11:41.235Z,5.70
2022-11-28T15:14:08.227Z,5.70
2022-11-28T15:16:36.932Z,5.80
2022-11-28T15:19:07.741Z,5.70
2022-11-28T15:21:47.671Z,5.80
2022-11-28T15:24:17.140Z,5.80
2022-11-28T15:26:44.885Z,5.70
2022-11-28T15:29:23.581Z,5.70
2022-11-28T15:31:51.914Z,5.70
2022-11-28T15:34:25.036Z,5.60
2022-11-28T15:36:53.753Z,5.60
2022-11-28T15:39:29.122Z,5.60
2022-11-28T15:41:57.344Z,5.70
2022-11-28T15:44:24.296Z,5.70
2022-11-28T15:46:51.118Z,5.70
2022-11-28T15:49:26.402Z,5.70
2022-11-28T15:51:54.734Z,5.70
2022-11-28T15:54:30.751Z,5.70
2022-11-28T15:56:58.463Z,5.60
2022-11-28T15:59:26.014Z,5.60
2022-11-28T16:01:59.082Z,5.70
2022-11-28T16:04:26.574Z,5.60
2022-11-28T16:06:55.676Z,5.50
2022-11-28T16:09:28.608Z,5.50
2022-11-28T16:11:55.866Z,5.60
2022-11-28T16:14:27.837Z,5.60
2022-11-28T16:16:55.085Z,5.60
2022-11-28T16:19:29.128Z,5.50
2022-11-28T16:22:00.169Z,5.50
2022-11-28T16:24:47.454Z,5.60
2022-11-28T16:27:27.410Z,5.50
2022-11-28T16:29:54.577Z,5.60
2022-11-28T16:32:23.320Z,5.60
2022-11-28T16:34:51.746Z,5.60
2022-11-28T16:37:23.622Z,5.60
2022-11-28T16:40:02.812Z,5.70
2022-11-28T16:42:29.586Z,5.60
2022-11-28T16:44:56.499Z,5.60
2022-11-28T16:47:27.735Z,5.50
2022-11-28T16:50:24.375Z,5.60
2022-11-28T16:52:52.532Z,5.60
2022-11-28T16:55:29.838Z,5.60
2022-11-28T16:58:10.397Z,5.60
2022-11-28T17:00:39.100Z,5.60
2022-11-28T17:03:10.252Z,5.60
2022-11-28T17:05:39.489Z,5.60
2022-11-28T17:08:07.555Z,5.60
2022-11-28T17:10:34.326Z,5.60
2022-11-28T17:13:11.589Z,5.60
2022-11-28T17:15:38.457Z,5.60
2022-11-28T17:18:05.285Z,5.60
2022-11-28T17:20:32.036Z,5.60
2022-11-28T17:22:59.088Z,5.60
2022-11-28T17:25:26.024Z,5.60
2022-11-28T17:27:53.030Z,5.60
2022-11-28T17:30:19.860Z,5.50
2022-11-28T17:32:51.897Z,5.50
2022-11-28T17:35:21.577Z,5.50
2022-11-28T17:37:50.166Z,5.50
2022-11-28T17:40:36.898Z,5.60
2022-11-28T17:43:04.363Z,5.60
2022-11-28T17:45:32.327Z,5.60
2022-11-28T17:47:59.252Z,5.70
2022-11-28T17:50:27.136Z,5.60
2022-11-28T17:52:54.040Z,5.60
2022-11-28T17:55:21.270Z,5.60
2022-11-28T17:57:48.331Z,5.60
2022-11-28T18:00:16.912Z,5.60
2022-11-28T18:02:44.991Z,5.60
2022-11-28T18:05:12.086Z,5.60
2022-11-28T18:07:40.036Z,5.60
2022-11-28T18:10:11.036Z,5.60
2022-11-28T18:12:39.449Z,5.60
2022-11-28T18:15:07.957Z,5.50
2022-11-28T18:17:34.789Z,5.60
2022-11-28T18:20:03.577Z,5.60
2022-11-28T18:22:30.699Z,5.60
2022-11-28T18:24:57.942Z,5.60
2022-11-28T18:27:24.848Z,5.60
2022-11-28T18:29:52.654Z,5.60
2022-11-28T18:32:19.637Z,5.50
2022-11-28T18:34:46.972Z,5.60
2022-11-28T18:37:13.965Z,5.50
2022-11-28T18:39:41.056Z,5.50
2022-11-28T18:42:08.091Z,5.50
2022-11-28T18:44:35.191Z,5.50
2022-11-28T18:47:01.965Z,5.50
2022-11-28T18:49:29.949Z,5.50
2022-11-28T18:51:57.345Z,5.50
2022-11-28T18:54:25.723Z,5.50
2022-11-28T18:56:52.658Z,5.50
2022-11-28T18:59:20.141Z,5.60
2022-11-28T19:01:47.426Z,5.50
2022-11-28T19:04:16.741Z,5.60
2022-11-28T19:06:44.347Z,5.60
2022-11-28T19:09:13.049Z,5.60
2022-11-28T19:11:40.381Z,5.60
2022-11-28T19:14:08.025Z,5.60
2022-11-28T19:16:37.572Z,5.60
2022-11-28T19:19:05.333Z,5.50
2022-11-28T19:21:34.524Z,5.50
2022-11-28T19:24:02.182Z,5.50
2022-11-28T19:26:29.808Z,5.40
2022-11-28T19:28:57.582Z,5.40
2022-11-28T19:31:29.252Z,5.50
2022-11-28T19:34:17.171Z,5.50
2022-11-28T19:36:46.456Z,5.40
2022-11-28T19:39:15.465Z,5.50
2022-11-28T19:41:42.342Z,5.50
2022-11-28T19:44:10.429Z,5.50
2022-11-28T19:46:37.557Z,5.60
2022-11-28T19:49:05.898Z,5.60
2022-11-28T19:51:33.889Z,5.60
2022-11-28T19:54:04.153Z,5.60
2022-11-28T19:56:33.214Z,5.50
2022-11-28T19:59:00.303Z,5.50
2022-11-28T20:01:28.334Z,5.50
2022-11-28T20:03:55.572Z,5.50
2022-11-28T20:11:08.417Z,5.50
2022-11-28T20:13:57.591Z,5.50
2022-11-28T20:16:25.221Z,5.50
2022-11-28T20:18:53.257Z,5.50
2022-11-28T20:21:21.518Z,5.50
2022-11-28T20:23:54.639Z,5.50
2022-11-28T20:26:23.693Z,5.50
2022-11-28T20:28:52.116Z,5.50
2022-11-28T20:31:23.636Z,5.60
2022-11-28T20:33:52.342Z,5.50
2022-11-28T20:36:21.206Z,5.50
2022-11-28T20:38:48.772Z,5.50
2022-11-28T20:41:17.135Z,5.50
2022-11-28T20:43:44.424Z,5.50
2022-11-28T20:46:16.185Z,5.50
2022-11-28T20:48:43.333Z,5.50
2022-11-28T20:51:13.436Z,5.60
2022-11-28T20:53:41.387Z,5.50
2022-11-28T20:56:10.245Z,5.50
2022-11-28T20:58:37.086Z,5.60
2022-11-28T21:01:04.580Z,5.60
2022-11-28T21:03:31.801Z,5.60
2022-11-28T21:06:01.271Z,5.50
2022-11-28T21:08:31.382Z,5.60
2022-11-28T21:10:58.191Z,5.50
2022-11-28T21:13:25.216Z,5.60
2022-11-28T21:15:53.458Z,5.50
2022-11-28T21:18:20.716Z,5.50
2022-11-28T21:20:49.785Z,5.60
2022-11-28T21:23:16.715Z,5.50
2022-11-28T21:25:44.070Z,5.50
2022-11-28T21:28:12.816Z,5.40
2022-11-28T21:30:41.288Z,5.50
2022-11-28T21:33:08.551Z,5.50
2022-11-28T21:35:37.951Z,5.50
2022-11-28T21:38:04.921Z,5.50
2022-11-28T21:40:34.202Z,5.50
2022-11-28T21:43:01.367Z,5.50
2022-11-28T21:45:28.198Z,5.50
2022-11-28T21:47:57.333Z,5.50
2022-11-28T21:50:31.754Z,5.50
2022-11-28T21:52:59.991Z,5.50
2022-11-28T21:55:27.379Z,5.50
2022-11-28T21:57:54.332Z,5.60
2022-11-28T22:00:46.014Z,5.50
2022-11-28T22:03:14.315Z,5.50
2022-11-28T22:05:48.573Z,5.50
2022-11-28T22:08:16.179Z,5.60
2022-11-28T22:10:43.240Z,5.60
2022-11-28T22:13:11.299Z,5.60
2022-11-28T22:15:43.403Z,5.60
2022-11-28T22:18:10.728Z,5.60
2022-11-28T22:20:43.585Z,5.60
2022-11-28T22:23:12.008Z,5.60
2022-11-28T22:25:49.358Z,5.60
2022-11-28T22:28:16.270Z,5.60
2022-11-28T22:30:43.275Z,5.60
2022-11-28T22:33:15.788Z,5.60
2022-11-28T22:35:45.529Z,5.60
2022-11-28T22:38:13.170Z,5.50
2022-11-28T22:40:40.470Z,5.60
2022-11-28T22:43:08.062Z,5.60
2022-11-28T22:45:35.306Z,5.50
2022-11-28T22:48:02.738Z,5.50
2022-11-28T22:50:29.628Z,5.60
2022-11-28T22:52:56.391Z,5.50
2022-11-28T22:55:23.187Z,5.50
2022-11-28T22:57:49.961Z,5.50
2022-11-28T23:00:25.772Z,5.50
2022-11-28T23:02:56.784Z,5.50
2022-11-28T23:05:23.752Z,5.50
2022-11-28T23:07:50.683Z,5.50
2022-11-28T23:10:20.522Z,5.40
2022-11-28T23:13:02.127Z,5.50
2022-11-28T23:15:29.532Z,5.50
2022-11-28T23:18:01.328Z,5.60
2022-11-28T23:20:31.744Z,5.60
2022-11-28T23:22:59.834Z,5.60
2022-11-28T23:25:28.258Z,5.60
2022-11-28T23:27:55.197Z,5.60
2022-11-28T23:30:22.589Z,5.60
2022-11-28T23:32:49.671Z,5.60
2022-11-28T23:35:17.007Z,5.60
2022-11-28T23:37:43.871Z,5.60
2022-11-28T23:40:11.046Z,5.50
2022-11-28T23:42:37.834Z,5.50
2022-11-28T23:45:04.943Z,5.50
2022-11-28T23:47:31.711Z,5.50
2022-11-28T23:49:58.556Z,5.50
2022-11-28T23:52:25.333Z,5.50
2022-11-28T23:54:52.151Z,5.50
2022-11-28T23:57:19.010Z,5.50
2022-11-28T23:59:46.364Z,5.60
